ROTAER D-AMDT 22/20 Ver Mudanças

Guanambi ( SNGI ) / GUANAMBI, BA 14 12 29S/042 44 46W
AD PUB Governo do Estado 1NW UTC-3 VFR L21 , L26 553 (1814)

14 - L12 - ( 1700x30 ASPH 18/F/A/Y/T L14 , L15 ) - L12 - 32

SBRE (CINDACTA 3)
CMB- [2] PF TF SER - S1  
MET -

[1]

RMK -

OBSTÁCULO DE AERÓDROMO
  1. OBST NEG LGTD violando o Plano Básico de Zona de Proteção do AD:
    1 - ARVORE, COORD 141219.23S/0424459.18W, ALT 567M
    2 - MORRO, COORD 141033.11S/0424654.85W, ALT 739M
    3 - MORRO, COORD 141203.65S/0424400.27W, ALT 649M
    4 - MORRO, COORD 141033.39S/0424655.88W, ALT 718M
    5 - MORRO, COORD 141405.55S/0424147.24W, ALT 664M
    6 - MORRO, COORD 141425.50S/0424003.00W, ALT 949M
REGULAMENTOS PARA TRÁFEGO LOCAL
  1. Circuito de TFC deverá ser executado somente pelo SECT SW do AD.
INFORMAÇÃO ADICIONAL
  1. As ACFT com destino ao AD deverão COOR com 24 horas de antecedência através do e-mail: aeroportodeguanambi@infracea.com.br.
COMPL -
  • [1] ESTACAO DE RADIODIFUSAO AUTOMATICA DE AERODROMO (ERAA) FREQ 132.350MHZ HR SER H24
  • [2] O/R: TEL: (77) 98824-8730 e (77) 99920-7324. Reabastecimento de CMB no pátio principal 01.
TEMP (1)
INFOTEMP RE1795R/20
RWY 14/32 CLSD PARA VISTORIA OPERACIONAL DLY 1100-1130

Duração: 04/12/20 11:00 a 04/03/21 11:30 UTC | Divulgação: 06/11/2020 14:51


Suplementos AIP (0)

NOTAM (0)

Nascer/Por do Sol

08:37

21:27


METAR

201800Z AUTO 09011KT 060V120 CAVOK 31/16 Q1012=

TAF


Cartas (0)


Rotas Preferenciais (0)


Aeródromos Próximos